Lähimpiä lentokenttien sääasemia

 

EFHK - Helsinki/Vantaa, Finland
Ilmasuunta ja etäisyys Sääasema Lakkasuosta: IKO 25km
Päivitetty: 14/12/2017 11:50
Enimmäkseen pilvistä
Enimmäkseen pilvistä
 Tuulen suunta EKA
Tuuli: EKA 22 km/h
Lämpötila: 0°C
Hyytävyys: -6°C
Kastepiste: -3°C
Kosteus: 80%
Ilmanpaine: 997 hPa
Pilvet: Enimmäkseen pilvistä
Näkyvyys: 10 km
Pilvitiedot: Enimmäkseen pilvistä 457 m
Enimmäkseen pilvistä 6096 m
2017/12/14 09:50 EFHK 140950Z 15012KT 9999 BKN015 BKN200 M00/M03 Q0997 NOSIG
EFHF - Helsinki/Malmi, Finland
Ilmasuunta ja etäisyys Sääasema Lakkasuosta: I 29km
Päivitetty: 06/03/2017 17:50
NOT Current
Selkeätä
Selkeätä
 Tuulen suunta KO
Tuuli: KO 11 km/h
Lämpötila: -2°C
Hyytävyys: -6°C
Kastepiste: -11°C
Kosteus: 51%
Ilmanpaine: 1021 hPa
Yhteenveto: Selkeätä
Näkyvyys: enemmän kuin 10 km
2017/03/06 15:50 EFHF 061550Z 04006KT 330V100 CAVOK M02/M11 Q1021
 
EETN - Tallinn, Estonia
Ilmasuunta ja etäisyys Sääasema Lakkasuosta: E 97km
Päivitetty: 14/12/2017 11:50
Osittain pilvistä
Osittain pilvistä
 Tuulen suunta EKA
Tuuli: EKA 22 km/h
Lämpötila: -1°C
Hyytävyys: -7°C
Kastepiste: -4°C
Kosteus: 80%
Ilmanpaine: 997 hPa
Pilvet: Osittain pilvistä
Näkyvyys: 10 km
Pilvitiedot: Osittain pilvistä 457 m
2017/12/14 09:50 EETN 140950Z 15012KT 120V180 9999 FEW015 M01/M04 Q0997 R08/810295 NOSIG
EFTU - Turku/Abo, Finland
Ilmasuunta ja etäisyys Sääasema Lakkasuosta: LLU 127km
Päivitetty: 14/12/2017 11:50
Vaihtelevaa
Vaihtelevaa
 Tuulen suunta EKA
Tuuli: EKA 19 km/h, Puuskatuuli: 37 km/h
Lämpötila: 2°C
Hyytävyys: -2°C
Kastepiste: -2°C
Kosteus: 75%
Ilmanpaine: 993 hPa
Pilvet: Vaihtelevaa
Näkyvyys: 10 km
Pilvitiedot: Osittain pilvistä 671 m
Enimmäkseen pilvistä 762 m
Vaihtelevaa 945 m
2017/12/14 09:50 EFTU 140950Z AUTO 16010G20KT 120V210 9999 FEW022/// BKN025/// OVC031/// 02/M02 Q0993
 
EFTP - Tampere/Pirkkala, Finland
Ilmasuunta ja etäisyys Sääasema Lakkasuosta: PLU 138km
Päivitetty: 14/12/2017 11:50
Enimmäkseen pilvistä
Enimmäkseen pilvistä
 Tuulen suunta EKA
Tuuli: EKA 22 km/h
Lämpötila: 1°C
Hyytävyys: -4°C
Kastepiste: -2°C
Kosteus: 81%
Ilmanpaine: 995 hPa
Pilvet: Enimmäkseen pilvistä
Näkyvyys: 10 km
Pilvitiedot: Osittain pilvistä 549 m
Enimmäkseen pilvistä 732 m
2017/12/14 09:50 EFTP 140950Z 16012KT 9999 FEW018 BKN024 01/M02 Q0995
EFPO - Pori (mil/Civ), Finland
Ilmasuunta ja etäisyys Sääasema Lakkasuosta: LU 199km
Päivitetty: 14/12/2017 11:50
Puolipilvistä
Puolipilvistä
 Tuulen suunta KA
Tuuli: KA 30 km/h
Lämpötila: 1°C
Hyytävyys: -5°C
Kastepiste: -2°C
Kosteus: 81%
Ilmanpaine: 992 hPa
Pilvet: Puolipilvistä
Näkyvyys: 10 km
Pilvitiedot: Puolipilvistä 1158 m
2017/12/14 09:50 EFPO 140950Z AUTO 14016KT 9999 SCT038/// 01/M02 Q0992
 
EFLP - Lappeenranta, Finland
Ilmasuunta ja etäisyys Sääasema Lakkasuosta: IKO 216km
Päivitetty: 14/12/2017 11:50
Vaihtelevaa
Vaihtelevaa
 Tuulen suunta EKA
Tuuli: EKA 11 km/h
Lämpötila: 0°C
Hyytävyys: -4°C
Kastepiste: -2°C
Kosteus: 87%
Ilmanpaine: 1001 hPa
Pilvet: Vaihtelevaa
Näkyvyys: 10 km
Pilvitiedot: Vaihtelevaa 396 m
2017/12/14 09:50 EFLP 140950Z AUTO 16006KT 110V210 9999 OVC013 M00/M02 Q1001
EFMI - Mikkeli, Finland
Ilmasuunta ja etäisyys Sääasema Lakkasuosta: KO 220km
Päivitetty: 14/12/2017 11:50
Enimmäkseen pilvistä
Enimmäkseen pilvistä
 Tuulen suunta E
Tuuli: E 11 km/h
Lämpötila: 0°C
Hyytävyys: -4°C
Kastepiste: -4°C
Kosteus: 75%
Ilmanpaine: 999 hPa
Pilvet: Enimmäkseen pilvistä
Näkyvyys: 10 km
Pilvitiedot: Enimmäkseen pilvistä 610 m
Enimmäkseen pilvistä 4572 m
2017/12/14 09:50 EFMI 140950Z AUTO 17006KT 120V220 9999 BKN020 BKN150 M00/M04 Q0999
 
EFJY - Jyvaskyla (mil/C, Finland
Ilmasuunta ja etäisyys Sääasema Lakkasuosta: PKO 245km
Päivitetty: 14/12/2017 11:50
Enimmäkseen pilvistä
Enimmäkseen pilvistä
 Tuulen suunta EKA
Tuuli: EKA 17 km/h
Lämpötila: 1°C
Hyytävyys: -3°C
Kastepiste: -1°C
Kosteus: 87%
Ilmanpaine: 996 hPa
Pilvet: Enimmäkseen pilvistä
Näkyvyys: 10 km
Pilvitiedot: Osittain pilvistä 366 m
Puolipilvistä 427 m
Enimmäkseen pilvistä 671 m
2017/12/14 09:50 EFJY 140950Z 16009KT 120V190 9999 FEW012 SCT014 BKN022 01/M01 Q0996
EFMA - Mariehamn/Aland, Finland
Ilmasuunta ja etäisyys Sääasema Lakkasuosta: L 257km
Päivitetty: 14/12/2017 11:50
Enimmäkseen pilvistä
Enimmäkseen pilvistä
 Tuulen suunta KA
Tuuli: KA 22 km/h
Lämpötila: 4°C
Hyytävyys: -1°C
Kastepiste: -1°C
Kosteus: 70%
Ilmanpaine: 988 hPa
Pilvet: Enimmäkseen pilvistä
Näkyvyys: 10 km
Pilvitiedot: Osittain pilvistä 762 m
Enimmäkseen pilvistä 1311 m
2017/12/14 09:50 EFMA 140950Z 14012KT 090V180 9999 FEW025 BKN043 04/M01 Q0988
 
EFVR - Varkaus, Finland
Ilmasuunta ja etäisyys Sääasema Lakkasuosta: KO 277km
Päivitetty: 15/04/2016 08:50
NOT Current
Selkeätä
Selkeätä
 Tuulen suunta PLU
Tuuli: PLU 15 km/h
Lämpötila: -1°C
Hyytävyys: -6°C
Kastepiste: -8°C
Kosteus: 59%
Ilmanpaine: 1005 hPa
Yhteenveto: Selkeätä
Näkyvyys: enemmän kuin 10 km
2016/04/15 05:50 EFVR 150550Z AUTO 33008KT CAVOK M01/M08 Q1005
EFSI - Seinajoki-Ilmajo, Finland
Ilmasuunta ja etäisyys Sääasema Lakkasuosta: PLU 285km
Päivitetty: 14/12/2017 11:50
Enimmäkseen pilvistä
Enimmäkseen pilvistä
 Tuulen suunta EKA
Tuuli: EKA 20 km/h
Lämpötila: 1°C
Hyytävyys: -4°C
Kastepiste: 0°C
Kosteus: 93%
Ilmanpaine: 992 hPa
Pilvet: Enimmäkseen pilvistä
Näkyvyys: 10 km
Pilvitiedot: Enimmäkseen pilvistä 335 m
2017/12/14 09:50 EFSI 140950Z AUTO 16011KT 110V210 9999 BKN011 01/M00 Q0992
 
KSJC - San Jose, California, USA
Ilmasuunta ja etäisyys Sääasema Lakkasuosta: PLU 8758km
Päivitetty: 14/12/2017 11:53
Selkeätä
Selkeätä
 Tuulen suunta calm
Tuuli: Tyyntä
Lämpötila: 6°C
Kastepiste: 3°C
Kosteus: 81%
Ilmanpaine: 1018.3 hPa
Pilvet: Selkeätä
Näkyvyys: 16 km
2017/12/14 09:53 KSJC 140953Z AUTO 00000KT 10SM CLR 06/03 A3007 RMK AO2 SLP182 T00610028